September 30, 2022

Time Code Weather Temp. Visibility Ceiling Wind METAR/SPECI
16:50
V
16 °C 10 km+ - 210° 210° 11 kt METAR EDDG 301450Z AUTO 21011KT 160V250 9999 SCT043 16/07 Q1009 NOSIG
16:20
V
16 °C 10 km+ - 190° 190° 11 kt METAR EDDG 301420Z AUTO 19011KT 160V220 9999 SCT042 16/07 Q1009 NOSIG
15:50
V
16 °C 10 km+ - 210° 210° 11 kt METAR EDDG 301350Z AUTO 21011KT 180V250 9999 SCT039 16/07 Q1009 NOSIG
15:20
V
17 °C 10 km+ - 210° 210° 9 kt METAR EDDG 301320Z AUTO 21009KT 160V250 9999 FEW038 17/07 Q1009 NOSIG
14:50
V
16 °C 10 km+ - 220° 220° 11 kt METAR EDDG 301250Z AUTO 22011KT 180V240 9999 FEW037 16/07 Q1010 NOSIG
14:20
V
15 °C 10 km+ - 210° 210° 9 kt METAR EDDG 301220Z AUTO 21009KT 170V240 9999 FEW034 15/07 Q1010 NOSIG
13:50
V
15 °C 10 km+ - 210° 210° 10 kt METAR EDDG 301150Z AUTO 21010KT 170V260 9999 SCT031 SCT039 15/08 Q1010 NOSIG
13:20
V
16 °C 10 km+ - 220° 220° 9 kt METAR EDDG 301120Z AUTO 22009KT 180V250 9999 FEW030 16/08 Q1010
12:50
V
15 °C 10 km+ - 200° 200° 9 kt METAR EDDG 301050Z AUTO 20009KT 160V240 CAVOK 15/08 Q1010 NOSIG
12:20
V
14 °C 10 km+ - 200° 200° 7 kt METAR EDDG 301020Z AUTO 20007KT 150V260 CAVOK 14/07 Q1010 NOSIG
11:50
V
14 °C 10 km+ - 190° 190° 7 kt METAR EDDG 300950Z AUTO 19007KT 120V220 CAVOK 14/08 Q1010 NOSIG
11:20
V
13 °C 10 km+ - 170° 170° 6 kt METAR EDDG 300920Z AUTO 17006KT 130V200 CAVOK 13/08 Q1010 NOSIG
10:50
V
11 °C 10 km+ - 160° 160° 4 kt METAR EDDG 300850Z AUTO 16004KT 120V190 CAVOK 11/08 Q1010 NOSIG
10:20
V
9 °C 10 km+ - 150° 150° 4 kt METAR EDDG 300820Z AUTO 15004KT 120V200 CAVOK 09/07 Q1010 NOSIG
09:50
V
7 °C 10 km+ - 140° 140° 4 kt METAR EDDG 300750Z AUTO 14004KT CAVOK 07/06 Q1010 NOSIG
09:20
V
6 °C 10 km+ - 140° 140° 3 kt METAR EDDG 300720Z AUTO 14003KT 090V170 CAVOK 06/05 Q1010 NOSIG
08:50
V
5 °C 10 km+ - 130° 130° 4 kt METAR EDDG 300650Z AUTO 13004KT 080V170 CAVOK 05/05 Q1010 NOSIG
08:20
M
4 °C 7 km - Var Var 2 kt METAR EDDG 300620Z AUTO VRB02KT 7000 NCD 04/04 Q1009 NOSIG
07:50
M
4 °C 5 km - Var Var 2 kt METAR EDDG 300550Z AUTO VRB02KT 5000 BR NCD 04/04 Q1009 TEMPO 3000 BCFG
07:20
M
3 °C 6 km - Var Var 2 kt METAR EDDG 300520Z AUTO VRB02KT 6000 NCD 03/03 Q1009 TEMPO 3000 BCFG
06:50
I
4 °C 1.8 km - Var Var 2 kt METAR EDDG 300450Z AUTO VRB02KT 6000 1800 BR NCD 04/04 Q1009 TEMPO 0600 FG
06:20
L
3 °C 650 m - Var Var 1 kt METAR EDDG 300420Z AUTO VRB01KT 1200 0650 R25/1000U BCFG NCD 03/03 Q1008 TEMPO 0600 FG
05:50
I
3 °C 2.8 km - Var Var 1 kt METAR EDDG 300350Z AUTO VRB01KT 7000 2800 R25/1100U BR NCD 03/03 Q1008 TEMPO 2500 BCFG
05:20
I
4 °C 3.4 km - Var Var 2 kt METAR EDDG 300320Z AUTO VRB02KT 3400 BR NSC 04/04 Q1008 TEMPO 1200
04:50
M
4 °C 5 km - Var Var 1 kt METAR EDDG 300250Z AUTO VRB01KT 5000 BR NSC 04/04 Q1008 TEMPO 3000 BCFG
04:20
L
4 °C 1.1 km - Var Var 1 kt METAR EDDG 300220Z AUTO VRB01KT 2200 1100 R25/1900N BR NSC 04/04 Q1008 TEMPO 3500
03:50
M
4 °C 7 km - Var Var 1 kt METAR EDDG 300150Z AUTO VRB01KT 7000 NSC 04/04 Q1008 TEMPO 3000 BCFG
03:20
V
5 °C 9 km - Var Var 1 kt METAR EDDG 300120Z AUTO VRB01KT 9000 NSC 05/04 Q1008 TEMPO 3000 BCFG
02:50
M
5 °C 5 km - Var Var 1 kt METAR EDDG 300050Z AUTO VRB01KT 5000 BR NSC 05/05 Q1007 TEMPO 3000 BCFG
02:20
V
5 °C 10 km+ - Var Var 1 kt METAR EDDG 300020Z AUTO VRB01KT CAVOK 05/05 Q1007 TEMPO 3000 BCFG
01:50
I
5 °C 2 km - Var 000° 0 kt METAR EDDG 292350Z AUTO 00000KT 8000 2000 BR NSC 05/05 Q1007 TEMPO 2000 BCFG
01:20
V
5 °C 10 km+ - 150° 150° 1 kt METAR EDDG 292320Z AUTO 15001KT CAVOK 05/05 Q1007 TEMPO 3000 BCFG
00:50
V
6 °C 10 km+ - 140° 140° 2 kt METAR EDDG 292250Z AUTO 14002KT CAVOK 06/06 Q1007 TEMPO 3000 BCFG
00:20
V
6 °C 10 km+ - Var Var 1 kt METAR EDDG 292220Z AUTO VRB01KT CAVOK 06/05 Q1007 TEMPO 3000 BCFG

September 29, 2022

Time Code Weather Temp. Visibility Ceiling Wind METAR/SPECI
23:50
V
6 °C 10 km+ - 270° 270° 1 kt METAR EDDG 292150Z AUTO 27001KT CAVOK 06/06 Q1007 NOSIG
23:20
V
6 °C 10 km+ - Var Var 1 kt METAR EDDG 292120Z AUTO VRB01KT CAVOK 06/06 Q1007 TEMPO 3000 BCFG
22:50
I
6 °C 2.3 km - Var Var 1 kt METAR EDDG 292050Z AUTO VRB01KT 7000 2300 BR NSC 06/06 Q1006 TEMPO 3000 BCFG
22:20
V
7 °C 10 km+ - Var Var 1 kt METAR EDDG 292020Z AUTO VRB01KT CAVOK 07/06 Q1006 NOSIG
21:50
V
7 °C 10 km+ - Var Var 1 kt METAR EDDG 291950Z AUTO VRB01KT CAVOK 07/06 Q1006 NOSIG
21:20
V
7 °C 10 km+ - 130° 130° 1 kt METAR EDDG 291920Z AUTO 13001KT CAVOK 07/07 Q1005 NOSIG
20:50
V
8 °C 10 km+ - 160° 160° 2 kt METAR EDDG 291850Z AUTO 16002KT CAVOK 08/07 Q1005 NOSIG
20:20
V
9 °C 10 km+ - Var Var 1 kt METAR EDDG 291820Z AUTO VRB01KT CAVOK 09/07 Q1005 NOSIG
19:50
V
10 °C 10 km+ - 170° 170° 1 kt METAR EDDG 291750Z AUTO 17001KT CAVOK 10/07 Q1005 NOSIG
19:20
V
11 °C 10 km+ - Var Var 1 kt METAR EDDG 291720Z AUTO VRB01KT CAVOK 11/07 Q1004 NOSIG
18:50
V
14 °C 10 km+ - 270° 270° 3 kt METAR EDDG 291650Z AUTO 27003KT CAVOK 14/07 Q1004 NOSIG
18:20
V
15 °C 10 km+ - 250° 250° 5 kt METAR EDDG 291620Z AUTO 25005KT 220V290 CAVOK 15/06 Q1004 NOSIG
17:50
V
15 °C 10 km+ - 240° 240° 6 kt METAR EDDG 291550Z AUTO 24006KT 220V280 CAVOK 15/05 Q1003 NOSIG
17:20
V
16 °C 10 km+ - 230° 230° 5 kt METAR EDDG 291520Z AUTO 23005KT 190V270 CAVOK 16/05 Q1003 NOSIG
16:50
V
16 °C 10 km+ - 260° 260° 4 kt METAR EDDG 291450Z AUTO 26004KT 210V330 9999 FEW042 16/06 Q1003 NOSIG
16:20
V
15 °C 10 km+ - 270° 270° 6 kt METAR EDDG 291420Z AUTO 27006KT 220V300 9999 FEW040 15/06 Q1003 NOSIG
15:50
V
15 °C 10 km+ - 290° 290° 5 kt METAR EDDG 291350Z AUTO 29005KT 260V340 9999 FEW039 15/06 Q1003 NOSIG
15:20
V
16 °C 10 km+ - 240° 240° 4 kt METAR EDDG 291320Z AUTO 24004KT 140V310 9999 SCT038 SCT048 16/06 Q1003 NOSIG
14:50
V
15 °C 10 km+ 3,500 ft 210° 210° 8 kt METAR EDDG 291250Z AUTO 21008KT 170V260 9999 BKN035 15/06 Q1003 NOSIG
14:20
V
15 °C 10 km+ - 210° 210° 5 kt METAR EDDG 291220Z AUTO 21005KT 170V240 9999 SCT032 SCT041 15/07 Q1003 NOSIG
13:50
V
15 °C 10 km+ - 280° 280° 5 kt METAR EDDG 291150Z AUTO 28005KT 240V350 9999 FEW029 15/07 Q1002 NOSIG
13:20
V
14 °C 10 km+ - Var Var 3 kt METAR EDDG 291120Z AUTO VRB03KT 9999 SCT024 14/06 Q1002 NOSIG
12:50
V
13 °C 10 km+ - Var Var 4 kt METAR EDDG 291050Z AUTO VRB04KT 9999 SCT020 13/07 Q1002 NOSIG
12:20
V
12 °C 10 km+ - 260° 260° 3 kt METAR EDDG 291020Z AUTO 26003KT 200V010 9999 FEW015 12/08 Q1002 NOSIG
11:50
V
12 °C 10 km+ - Var Var 3 kt METAR EDDG 290950Z AUTO VRB03KT 9999 FEW012 12/08 Q1002 NOSIG
11:20
V
11 °C 10 km+ - Var Var 2 kt METAR EDDG 290920Z AUTO VRB02KT 9999 FEW003 SCT007 11/09 Q1002 NOSIG
10:50
L
9 °C 6 km 200 ft 130° 130° 3 kt METAR EDDG 290850Z AUTO 13003KT 070V210 6000 BKN002 09/08 Q1002 BECMG BKN006
10:20
L
7 °C 2.3 km 100 ft Var Var 1 kt METAR EDDG 290820Z AUTO VRB01KT 2300 BR BKN001 07/07 Q1002 BECMG 6000 BKN005
09:50
L
6 °C 700 m 100 ft 140° 140° 4 kt METAR EDDG 290750Z AUTO 14004KT 100V190 0900 0700 R25/1600D FG BKN001 06/06 Q1002 BECMG 4000 BR BKN006
09:20
L
6 °C 650 m 100 ft Var Var 1 kt METAR EDDG 290720Z AUTO VRB01KT 1100 0650 R25/1100U BCFG BKN001 06/06 Q1001 BECMG 4000 BR SCT005
08:50
L
5 °C 350 m 200 ft Var Var 2 kt METAR EDDG 290650Z AUTO VRB02KT 0500 0350 R25/0800N FG VV002 05/05 Q1001 BECMG 4000 BR SCT005
08:20
L
5 °C 300 m 200 ft Var Var 2 kt METAR EDDG 290620Z AUTO VRB02KT 0400 0300 R25/0650U FG VV002 05/05 Q1001 BECMG 3000 BR SCT005
07:50
L
5 °C 400 m 100 ft Var Var 2 kt METAR EDDG 290550Z AUTO VRB02KT 0750 0400 R25/0500N FG BKN001 05/05 Q1001 TEMPO 0500 FG SCT003
07:20
I
5 °C 3.6 km - Var Var 2 kt METAR EDDG 290520Z AUTO VRB02KT 3600 BR SCT001 05/05 Q1001 TEMPO 0500 FG
06:50
L
4 °C 550 m - Var Var 2 kt METAR EDDG 290450Z AUTO VRB02KT 0650 0550 R25/0600D FG FEW001 04/04 Q1000 TEMPO 0500 FG
06:20
L
5 °C 550 m - 150° 150° 3 kt METAR EDDG 290420Z AUTO 15003KT 1800 0550 R25/2000N BCFG FEW001 05/05 Q1000 TEMPO 0600 FG
05:50
L
4 °C 350 m - Var Var 2 kt METAR EDDG 290350Z AUTO VRB02KT 0400 0350 R25/0550D FG NCD 04/04 Q1000 BECMG 6000
05:20
L
4 °C 350 m - Var Var 1 kt METAR EDDG 290320Z AUTO VRB01KT 0450 0350 R25/0550D FG FEW031 04/04 Q1000 BECMG 6000 NSW
04:50
I
5 °C 2.7 km - Var Var 2 kt METAR EDDG 290250Z AUTO VRB02KT 2700 R25/1400U BR FEW031 05/05 Q1000 BECMG 6000 NSW
04:20
L
5 °C 550 m - Var Var 1 kt METAR EDDG 290220Z AUTO VRB01KT 0700 0550 R25/1300D FG NCD 05/05 Q1000 BECMG 6000 NSW
03:50
I
6 °C 1.8 km - Var Var 1 kt METAR EDDG 290150Z AUTO VRB01KT 4700 1800 BR NSC 06/06 Q1000 TEMPO 1200 BCFG
03:20
V
7 °C 9 km - Var Var 2 kt METAR EDDG 290120Z AUTO VRB02KT 9000 NSC 07/07 Q1000 NOSIG
02:50
V
7 °C 10 km+ - 150° 150° 3 kt METAR EDDG 290050Z AUTO 15003KT 9999 FEW039 07/07 Q1000 NOSIG
02:20
V
8 °C 10 km+ 3,700 ft 150° 150° 2 kt METAR EDDG 290020Z AUTO 15002KT 9999 BKN037 BKN046 08/07 Q1000 NOSIG
01:50
V
8 °C 10 km+ - 160° 160° 2 kt METAR EDDG 282350Z AUTO 16002KT 9999 FEW031 08/07 Q1000 NOSIG
01:20
V
8 °C 10 km+ 4,100 ft 130° 130° 2 kt METAR EDDG 282320Z AUTO 13002KT 9999 BKN041 08/07 Q1000 NOSIG
00:50
V
8 °C 10 km+ - Var Var 2 kt METAR EDDG 282250Z AUTO VRB02KT CAVOK 08/07 Q1000 NOSIG
00:20
V
7 °C 10 km+ - 150° 150° 3 kt METAR EDDG 282220Z AUTO 15003KT 9999 SCT037 07/07 Q0999 NOSIG

September 28, 2022

Time Code Weather Temp. Visibility Ceiling Wind METAR/SPECI
23:50
V
7 °C 10 km+ - 160° 160° 3 kt METAR EDDG 282150Z AUTO 16003KT 9999 SCT036 07/07 Q0999 NOSIG
23:20
V
8 °C 10 km+ - 160° 160° 3 kt METAR EDDG 282120Z AUTO 16003KT CAVOK 08/07 Q0999 NOSIG
22:50
V
8 °C 10 km+ - Var Var 2 kt METAR EDDG 282050Z AUTO VRB02KT CAVOK 08/07 Q0999 NOSIG
22:20
V
9 °C 10 km+ - 240° 240° 3 kt METAR EDDG 282020Z AUTO 24003KT 210V300 9999 FEW035 09/07 Q0999 NOSIG
21:50
V
10 °C 10 km+ 4,800 ft 200° 200° 4 kt METAR EDDG 281950Z AUTO 20004KT 170V250 9999 BKN048 10/07 Q0998 NOSIG
21:20
V
10 °C 10 km+ - 210° 210° 6 kt METAR EDDG 281920Z AUTO 21006KT 180V250 9999 FEW043 10/07 Q0998 NOSIG
20:50
V
11 °C 10 km+ 4,200 ft 210° 210° 5 kt METAR EDDG 281850Z AUTO 21005KT 170V250 9999 BKN042 11/07 Q0998 NOSIG
20:20
V
9 °C 10 km+ 4,900 ft 160° 160° 4 kt METAR EDDG 281820Z AUTO 16004KT 9999 BKN049 09/07 Q0998 NOSIG
19:50
V
9 °C 10 km+ - 140° 140° 2 kt METAR EDDG 281750Z AUTO 14002KT 9999 FEW037 09/07 Q0998 NOSIG
19:20
V
10 °C 10 km+ - Var Var 2 kt METAR EDDG 281720Z AUTO VRB02KT 9999 FEW039 10/08 Q0998 NOSIG
18:50
V
11 °C 10 km+ 3,800 ft 260° 260° 3 kt METAR EDDG 281650Z AUTO 26003KT 240V300 9999 BKN038 11/08 Q0998 NOSIG
18:20
V
13 °C 10 km+ - 260° 260° 3 kt METAR EDDG 281620Z AUTO 26003KT 230V320 9999 FEW033 13/06 Q0997 NOSIG
17:50
V
14 °C 10 km+ - Var Var 2 kt METAR EDDG 281550Z AUTO VRB02KT 9999 FEW037 14/06 Q0997 NOSIG
17:20
V
14 °C 10 km+ - 260° 260° 4 kt METAR EDDG 281520Z AUTO 26004KT 220V290 CAVOK 14/06 Q0997 NOSIG
16:50
V
14 °C 10 km+ - Var Var 3 kt METAR EDDG 281450Z AUTO VRB03KT 9999 FEW031 14/06 Q0997 NOSIG
Older data

We and third parties follow your internet behavior on our website with cookies. If you continue, we assume you agree with our cookie policy. Learn more